Terminal Aerodrome Forecast
Issued by NWS Sioux Falls, SD

Home | Current Version | Previous Version | Text Only | Print | Product List | Glossary On
Versions: 1 2 3 4 5 6 7 8 9 10 11 12 13 14 15
792
FTUS43 KFSD 102328
TAFFSD
TAF
KFSD 102328Z 1100/1124 11012KT 1 1/2SM -SN OVC015
      TEMPO 1100/1102 3/4SM -SN OVC025
     FM110600 12012KT 2SM -SN OVC010
     FM111000 11008KT 3SM -SN OVC008
     FM111200 VRB04KT 5SM -SN OVC008
     FM111500 35006KT P6SM OVC008
     FM111700 32010KT P6SM OVC010
     FM112100 31012KT P6SM BKN035=

USA.gov is the U.S. government's official web portal to all federal, state and local government web resources and services.